createdAt,value
2018-06-02T00:02:18.177Z,99952.61
2018-06-02T00:04:45.764Z,99946.88
2018-06-02T00:07:13.302Z,99945.93
2018-06-02T00:09:40.850Z,99945.69
2018-06-02T00:12:08.434Z,99945.79
2018-06-02T00:14:35.985Z,99948.17
2018-06-02T00:17:03.533Z,99955.06
2018-06-02T00:19:31.106Z,99951.22
2018-06-02T00:21:58.654Z,99949.27
2018-06-02T00:24:26.198Z,99961.14
2018-06-02T00:26:53.774Z,99958.48
2018-06-02T00:29:21.319Z,99959.11
2018-06-02T00:31:48.893Z,99943.48
2018-06-02T00:34:16.465Z,99944.28
2018-06-02T00:36:44.015Z,99938.86
2018-06-02T00:39:11.596Z,99941.70
2018-06-02T00:41:39.170Z,99939.27
2018-06-02T00:44:06.720Z,99938.05
2018-06-02T00:46:34.262Z,99931.77
2018-06-02T00:49:01.835Z,99933.39
2018-06-02T00:51:29.387Z,99930.23
2018-06-02T00:53:56.942Z,99929.64
2018-06-02T00:56:24.522Z,99936.50
2018-06-02T00:58:52.061Z,99939.50
2018-06-02T01:01:19.614Z,99947.45
2018-06-02T01:03:47.199Z,99942.43
2018-06-02T01:06:14.742Z,99942.09
2018-06-02T01:08:42.292Z,99942.98
2018-06-02T01:11:09.861Z,99944.39
2018-06-02T01:13:37.401Z,99945.75
2018-06-02T01:16:04.946Z,99948.41
2018-06-02T01:18:32.521Z,99948.90
2018-06-02T01:21:00.065Z,99951.05
2018-06-02T01:23:27.609Z,99957.15
2018-06-02T01:25:55.187Z,99957.31
2018-06-02T01:28:23.696Z,99963.04
2018-06-02T01:30:51.310Z,99963.33
2018-06-02T01:33:18.886Z,99968.66
2018-06-02T01:35:46.439Z,99963.73
2018-06-02T01:38:13.995Z,99967.05
2018-06-02T01:40:41.579Z,99968.34
2018-06-02T01:43:09.125Z,99961.34
2018-06-02T01:45:36.679Z,99970.97
2018-06-02T01:48:04.265Z,99967.84
2018-06-02T01:50:31.819Z,99968.30
2018-06-02T01:52:59.370Z,99966.22
2018-06-02T01:55:26.951Z,99963.72
2018-06-02T01:57:54.545Z,99967.74
2018-06-02T02:00:22.090Z,99971.07
2018-06-02T02:02:49.682Z,99973.50
2018-06-02T02:05:17.233Z,99974.74
2018-06-02T02:07:44.770Z,99978.07
2018-06-02T02:10:12.353Z,99982.25
2018-06-02T02:12:39.899Z,99982.42
2018-06-02T02:15:07.449Z,99980.25
2018-06-02T02:17:35.034Z,99975.41
2018-06-02T02:20:02.594Z,99973.73
2018-06-02T02:22:30.148Z,99976.63
2018-06-02T02:24:57.796Z,99988.58
2018-06-02T02:27:25.369Z,99991.17
2018-06-02T02:29:52.919Z,99989.19
2018-06-02T02:32:20.501Z,99988.45
2018-06-02T02:34:48.049Z,99986.66
2018-06-02T02:37:15.599Z,99990.47
2018-06-02T02:39:43.177Z,99994.95
2018-06-02T02:42:10.731Z,99990.85
2018-06-02T02:44:38.277Z,99992.63
2018-06-02T02:47:05.846Z,99999.83
2018-06-02T02:49:33.395Z,99998.02
2018-06-02T02:52:00.936Z,99995.44
2018-06-02T02:54:28.525Z,99989.76
2018-06-02T02:56:56.186Z,99995.03
2018-06-02T02:59:23.736Z,99997.89
2018-06-02T03:01:51.311Z,100000.69
2018-06-02T03:04:18.857Z,100005.42
2018-06-02T03:06:46.413Z,100002.44
2018-06-02T03:09:13.986Z,100003.39
2018-06-02T03:11:41.537Z,99998.63
2018-06-02T03:14:09.093Z,99995.62
2018-06-02T03:16:36.667Z,99992.44
2018-06-02T03:19:04.212Z,99994.82
2018-06-02T03:21:31.762Z,99996.25
2018-06-02T03:23:59.363Z,100002.56
2018-06-02T03:26:26.911Z,100008.03
2018-06-02T03:28:54.462Z,100009.29
2018-06-02T03:31:22.034Z,100012.67
2018-06-02T03:33:49.580Z,100014.02
2018-06-02T03:36:17.122Z,100005.52
2018-06-02T03:38:44.702Z,100009.15
2018-06-02T03:41:12.250Z,100008.53
2018-06-02T03:43:39.798Z,100005.31
2018-06-02T03:46:07.375Z,100007.02
2018-06-02T03:48:34.918Z,100010.03
2018-06-02T03:51:02.467Z,100008.28
2018-06-02T03:53:30.042Z,100008.47
2018-06-02T03:55:57.582Z,100005.28
2018-06-02T03:58:25.130Z,100007.88
2018-06-02T04:00:52.701Z,100003.36
2018-06-02T04:03:20.242Z,100016.22
2018-06-02T04:05:47.793Z,100009.64
2018-06-02T04:08:15.365Z,100013.02
2018-06-02T04:10:42.945Z,100016.01
2018-06-02T04:13:10.489Z,100016.11
2018-06-02T04:15:38.188Z,100017.68
2018-06-02T04:18:05.737Z,100017.02
2018-06-02T04:20:33.290Z,100014.70
2018-06-02T04:23:00.863Z,100019.30
2018-06-02T04:25:28.407Z,100019.86
2018-06-02T04:27:55.961Z,100024.72
2018-06-02T04:30:23.668Z,100024.97
2018-06-02T04:32:51.217Z,100018.27
2018-06-02T04:35:18.768Z,100024.76
2018-06-02T04:37:46.342Z,100017.19
2018-06-02T04:40:13.890Z,100020.55
2018-06-02T04:42:41.445Z,100024.52
2018-06-02T04:45:09.014Z,100018.83
2018-06-02T04:47:36.568Z,100020.89
2018-06-02T04:50:04.128Z,100014.26
2018-06-02T04:52:31.702Z,100011.72
2018-06-02T04:54:59.249Z,100012.31
2018-06-02T04:57:26.800Z,100013.52
2018-06-02T04:59:54.545Z,100013.97
2018-06-02T05:02:22.103Z,100012.53
2018-06-02T05:04:49.666Z,100019.48
2018-06-02T05:07:17.258Z,100009.61
2018-06-02T05:09:44.797Z,100014.02
2018-06-02T05:12:12.376Z,100011.45
2018-06-02T05:14:39.942Z,100010.00
2018-06-02T05:17:07.482Z,100008.05
2018-06-02T05:19:35.021Z,100007.86
2018-06-02T05:22:02.597Z,100010.27
2018-06-02T05:24:30.173Z,100014.33
2018-06-02T05:26:57.725Z,100018.84
2018-06-02T05:29:25.371Z,100023.55
2018-06-02T05:31:52.891Z,100011.22
2018-06-02T05:34:20.442Z,100009.69
2018-06-02T05:36:48.021Z,100005.95
2018-06-02T05:39:15.574Z,100009.88
2018-06-02T05:41:43.130Z,100007.02
2018-06-02T05:44:10.697Z,100000.30
2018-06-02T05:46:38.265Z,100003.06
2018-06-02T05:49:05.831Z,100002.70
2018-06-02T05:51:33.406Z,100003.69
2018-06-02T05:54:00.942Z,100004.05
2018-06-02T05:56:28.481Z,99993.03
2018-06-02T05:58:56.041Z,99993.57
2018-06-02T06:01:23.592Z,99991.51
2018-06-02T06:03:51.142Z,99996.19
2018-06-02T06:06:18.715Z,99999.30
2018-06-02T06:08:46.263Z,99993.00
2018-06-02T06:11:14.638Z,99990.14
2018-06-02T06:13:42.225Z,99986.31
2018-06-02T06:16:09.816Z,99991.50
2018-06-02T06:18:37.375Z,99989.50
2018-06-02T06:21:04.980Z,99989.17
2018-06-02T06:23:32.528Z,99990.31
2018-06-02T06:26:00.083Z,99993.40
2018-06-02T06:28:27.678Z,99997.55
2018-06-02T06:30:55.245Z,99995.85
2018-06-02T06:33:22.788Z,99993.13
2018-06-02T06:35:50.365Z,99984.77
2018-06-02T06:38:17.913Z,99982.20
2018-06-02T06:40:45.460Z,99986.91
2018-06-02T06:43:13.034Z,99975.58
2018-06-02T06:45:40.586Z,99982.02
2018-06-02T06:48:08.243Z,99975.35
2018-06-02T06:50:35.900Z,99977.02
2018-06-02T06:53:03.423Z,99977.86
2018-06-02T06:55:30.974Z,99972.70
2018-06-02T06:57:58.546Z,99972.19
2018-06-02T07:00:26.171Z,99972.42
2018-06-02T07:02:53.726Z,99975.50
2018-06-02T07:05:21.306Z,99969.92
2018-06-02T07:07:48.850Z,99970.42
2018-06-02T07:10:16.397Z,99966.23
2018-06-02T07:12:44.011Z,99974.77
2018-06-02T07:15:11.559Z,99968.44
2018-06-02T07:17:39.107Z,99964.86
2018-06-02T07:20:06.678Z,99969.19
2018-06-02T07:22:34.232Z,99970.03
2018-06-02T07:25:01.781Z,99967.06
2018-06-02T07:27:29.365Z,99966.45
2018-06-02T07:29:56.914Z,99960.88
2018-06-02T07:32:24.454Z,99973.09
2018-06-02T07:34:52.035Z,99970.37
2018-06-02T07:37:19.582Z,99970.97
2018-06-02T07:39:47.138Z,99973.55
2018-06-02T07:42:14.761Z,99979.80
2018-06-02T07:44:42.301Z,99974.91
2018-06-02T07:47:09.850Z,99970.18
2018-06-02T07:49:37.430Z,99965.33
2018-06-02T07:52:04.975Z,99967.98
2018-06-02T07:54:32.516Z,99967.47
2018-06-02T07:57:00.132Z,99967.73
2018-06-02T07:59:27.668Z,99961.59
2018-06-02T08:01:55.210Z,99959.10
2018-06-02T08:04:22.792Z,99964.44
2018-06-02T08:06:50.332Z,99954.11
2018-06-02T08:09:17.883Z,99954.08
2018-06-02T08:11:45.459Z,99949.61
2018-06-02T08:14:13.010Z,99946.72
2018-06-02T08:16:40.564Z,99957.02
2018-06-02T08:19:08.141Z,99958.09
2018-06-02T08:21:35.682Z,99955.67
2018-06-02T08:24:03.236Z,99954.44
2018-06-02T08:26:30.816Z,99951.84
2018-06-02T08:28:58.372Z,99949.66
2018-06-02T08:31:25.930Z,99952.38
2018-06-02T08:33:53.496Z,99956.81
2018-06-02T08:36:21.038Z,99944.04
2018-06-02T08:38:48.578Z,99945.44
2018-06-02T08:41:16.149Z,99940.67
2018-06-02T08:43:43.692Z,99947.10
2018-06-02T08:46:11.234Z,99937.37
2018-06-02T08:48:38.807Z,99940.50
2018-06-02T08:51:06.362Z,99941.92
2018-06-02T08:53:33.916Z,99943.44
2018-06-02T08:56:01.477Z,99945.44
2018-06-02T08:58:29.031Z,99949.27
2018-06-02T09:00:56.667Z,99938.76
2018-06-02T09:03:24.235Z,99951.02
2018-06-02T09:05:51.770Z,99942.59
2018-06-02T09:08:20.079Z,99941.01
2018-06-02T09:10:50.323Z,99933.11
2018-06-02T09:13:18.169Z,99939.37
2018-06-02T09:15:45.826Z,99938.66
2018-06-02T09:18:13.639Z,99937.05
2018-06-02T09:20:42.921Z,99933.73
2018-06-02T09:23:12.561Z,99933.81
2018-06-02T09:25:43.608Z,99931.61
2018-06-02T09:28:14.187Z,99929.17
2018-06-02T09:30:45.968Z,99927.55
2018-06-02T09:33:15.595Z,99927.48
2018-06-02T09:35:43.391Z,99930.93
2018-06-02T09:38:10.978Z,99929.91
2018-06-02T09:40:38.526Z,99930.89
2018-06-02T09:43:06.070Z,99913.11
2018-06-02T09:45:33.643Z,99920.98
2018-06-02T09:48:01.192Z,99919.53
2018-06-02T09:50:28.737Z,99914.14
2018-06-02T09:52:56.310Z,99913.31
2018-06-02T09:55:23.854Z,99917.78
2018-06-02T09:57:51.408Z,99916.08
2018-06-02T10:00:25.684Z,99905.50
2018-06-02T10:02:53.259Z,99910.06
2018-06-02T10:05:20.812Z,99910.05
2018-06-02T10:07:48.396Z,99911.19
2018-06-02T10:10:16.007Z,99917.42
2018-06-02T10:12:43.565Z,99913.88
2018-06-02T10:15:11.252Z,99900.38
2018-06-02T10:17:38.805Z,99905.92
2018-06-02T10:20:06.338Z,99896.47
2018-06-02T10:22:33.915Z,99904.48
2018-06-02T10:25:01.464Z,99898.94
2018-06-02T10:27:29.007Z,99897.77
2018-06-02T10:29:56.582Z,99888.03
2018-06-02T10:32:24.114Z,99900.25
2018-06-02T10:34:51.705Z,99894.94
2018-06-02T10:37:19.298Z,99890.56
2018-06-02T10:39:46.868Z,99895.45
2018-06-02T10:42:14.427Z,99890.92
2018-06-02T10:44:42.047Z,99882.40
2018-06-02T10:47:09.555Z,99879.87
2018-06-02T10:49:37.098Z,99882.31
2018-06-02T10:52:04.700Z,99877.88
2018-06-02T10:54:32.253Z,99877.39
2018-06-02T10:56:59.814Z,99879.48
2018-06-02T10:59:27.384Z,99866.13
2018-06-02T11:01:54.921Z,99871.38
2018-06-02T11:04:22.468Z,99870.48
2018-06-02T11:06:50.038Z,99872.47
2018-06-02T11:09:17.586Z,99871.64
2018-06-02T11:11:45.146Z,99864.08
2018-06-02T11:14:12.732Z,99856.69
2018-06-02T11:16:40.280Z,99858.28
2018-06-02T11:19:07.827Z,99851.50
2018-06-02T11:21:35.410Z,99846.77
2018-06-02T11:24:02.951Z,99851.39
2018-06-02T11:26:30.486Z,99846.98
2018-06-02T11:28:58.176Z,99843.91
2018-06-02T11:31:25.729Z,99835.22
2018-06-02T11:33:53.270Z,99837.05
2018-06-02T11:36:20.851Z,99832.30
2018-06-02T11:38:48.403Z,99832.09
2018-06-02T11:41:15.947Z,99831.88
2018-06-02T11:43:43.519Z,99825.78
2018-06-02T11:46:11.232Z,99819.67
2018-06-02T11:48:38.770Z,99813.21
2018-06-02T11:51:06.348Z,99813.98
2018-06-02T11:53:33.886Z,99809.34
2018-06-02T11:56:01.426Z,99800.94
2018-06-02T11:58:29.054Z,99814.71
2018-06-02T12:00:56.613Z,99807.33
2018-06-02T12:03:24.174Z,99804.00
2018-06-02T12:05:51.755Z,99797.11
2018-06-02T12:08:19.299Z,99787.46
2018-06-02T12:10:46.846Z,99792.05
2018-06-02T12:13:14.418Z,99785.89
2018-06-02T12:15:41.957Z,99789.11
2018-06-02T12:18:09.514Z,99791.89
2018-06-02T12:20:37.128Z,99785.06
2018-06-02T12:23:04.661Z,99780.66
2018-06-02T12:25:32.203Z,99780.73
2018-06-02T12:27:59.803Z,99777.68
2018-06-02T12:30:27.360Z,99773.45
2018-06-02T12:32:54.902Z,99778.53
2018-06-02T12:35:22.479Z,99777.08
2018-06-02T12:37:50.030Z,99767.66
2018-06-02T12:40:17.648Z,99767.33
2018-06-02T12:42:45.195Z,99767.40
2018-06-02T12:45:12.761Z,99753.08
2018-06-02T12:47:40.363Z,99761.95
2018-06-02T12:50:07.948Z,99755.08
2018-06-02T12:52:35.550Z,99752.65
2018-06-02T12:55:03.084Z,99736.78
2018-06-02T12:57:30.682Z,99736.56
2018-06-02T12:59:58.223Z,99738.05
2018-06-02T13:02:25.776Z,99735.46
2018-06-02T13:04:53.370Z,99736.70
2018-06-02T13:07:20.915Z,99735.55
2018-06-02T13:09:48.463Z,99735.63
2018-06-02T13:12:16.034Z,99730.05
2018-06-02T13:14:43.655Z,99728.64
2018-06-02T13:17:11.146Z,99730.95
2018-06-02T13:19:38.720Z,99733.14
2018-06-02T13:22:06.260Z,99730.92
2018-06-02T13:24:33.806Z,99730.92
2018-06-02T13:27:01.378Z,99729.99
2018-06-02T13:29:28.923Z,99729.92
2018-06-02T13:31:56.466Z,99725.40
2018-06-02T13:34:24.054Z,99732.00
2018-06-02T13:36:54.082Z,99726.67
2018-06-02T13:39:21.617Z,99724.51
2018-06-02T13:41:49.199Z,99722.08
2018-06-02T13:44:16.749Z,99720.28
2018-06-02T13:46:44.298Z,99718.55
2018-06-02T13:49:11.870Z,99723.41
2018-06-02T13:51:39.409Z,99721.02
2018-06-02T13:54:06.959Z,99716.76
2018-06-02T13:56:34.590Z,99715.98
2018-06-02T13:59:02.135Z,99719.13
2018-06-02T14:01:29.675Z,99712.89
2018-06-02T14:03:57.239Z,99704.11
2018-06-02T14:06:24.789Z,99716.58
2018-06-02T14:08:52.339Z,99711.59
2018-06-02T14:11:19.951Z,99718.78
2018-06-02T14:13:47.502Z,99712.61
2018-06-02T14:16:15.048Z,99720.77
2018-06-02T14:18:42.627Z,99715.45
2018-06-02T14:21:10.165Z,99714.45
2018-06-02T14:23:37.748Z,99720.55
2018-06-02T14:26:05.331Z,99720.05
2018-06-02T14:28:32.891Z,99715.45
2018-06-02T14:31:00.433Z,99716.44
2018-06-02T14:33:28.018Z,99707.70
2018-06-02T14:35:55.562Z,99695.19
2018-06-02T14:38:23.124Z,99701.54
2018-06-02T14:40:50.738Z,99703.46
2018-06-02T14:43:18.282Z,99699.90
2018-06-02T14:45:45.817Z,99699.55
2018-06-02T14:48:13.462Z,99695.02
2018-06-02T14:50:41.033Z,99692.69
2018-06-02T14:53:08.578Z,99687.95
2018-06-02T14:55:36.166Z,99688.66
2018-06-02T14:58:03.717Z,99690.70
2018-06-02T15:00:31.278Z,99687.73
2018-06-02T15:02:58.918Z,99687.87
2018-06-02T15:05:26.458Z,99690.75
2018-06-02T15:07:54.002Z,99682.77
2018-06-02T15:10:21.582Z,99679.58
2018-06-02T15:12:49.125Z,99677.88
2018-06-02T15:15:16.669Z,99677.75
2018-06-02T15:17:44.301Z,99674.91
2018-06-02T15:20:11.824Z,99669.64
2018-06-02T15:22:39.373Z,99666.16
2018-06-02T15:25:06.960Z,99671.84
2018-06-02T15:27:34.520Z,99667.56
2018-06-02T15:30:02.086Z,99665.72
2018-06-02T15:32:29.699Z,99668.48
2018-06-02T15:34:57.253Z,99660.42
2018-06-02T15:37:24.790Z,99661.14
2018-06-02T15:39:52.367Z,99664.20
2018-06-02T15:42:19.939Z,99659.77
2018-06-02T15:44:47.478Z,99664.97
2018-06-02T15:47:15.072Z,99665.11
2018-06-02T15:49:42.628Z,99666.10
2018-06-02T15:52:10.178Z,99667.08
2018-06-02T15:54:37.746Z,99668.69
2018-06-02T15:57:05.290Z,99671.72
2018-06-02T15:59:32.841Z,99667.34
2018-06-02T16:02:00.416Z,99665.56
2018-06-02T16:04:27.978Z,99666.72
2018-06-02T16:06:55.538Z,99670.02
2018-06-02T16:09:23.108Z,99672.84
2018-06-02T16:11:50.662Z,99671.59
2018-06-02T16:14:18.217Z,99670.84
2018-06-02T16:16:45.781Z,99662.45
2018-06-02T16:19:13.322Z,99661.29
2018-06-02T16:21:40.873Z,99664.55
2018-06-02T16:24:08.455Z,99659.42
2018-06-02T16:26:36.007Z,99662.00
2018-06-02T16:29:03.557Z,99665.59
2018-06-02T16:31:31.135Z,99666.25
2018-06-02T16:33:58.682Z,99666.76
2018-06-02T16:36:26.239Z,99657.80
2018-06-02T16:38:53.858Z,99659.53
2018-06-02T16:41:22.606Z,99652.73
2018-06-02T16:43:50.154Z,99652.14
2018-06-02T16:46:17.747Z,99658.82
2018-06-02T16:48:45.369Z,99655.97
2018-06-02T16:51:12.921Z,99655.57
2018-06-02T16:53:40.504Z,99647.53
2018-06-02T16:56:08.082Z,99656.26
2018-06-02T16:58:35.629Z,99651.63
2018-06-02T17:01:03.184Z,99655.74
2018-06-02T17:03:30.755Z,99660.55
2018-06-02T17:05:58.298Z,99653.94
2018-06-02T17:08:25.841Z,99650.68
2018-06-02T17:10:53.429Z,99657.19
2018-06-02T17:13:20.982Z,99662.70
2018-06-02T17:15:48.530Z,99660.01
2018-06-02T17:18:16.141Z,99660.50
2018-06-02T17:20:43.696Z,99654.51
2018-06-02T17:23:11.257Z,99660.25
2018-06-02T17:25:38.830Z,99670.15
2018-06-02T17:28:06.390Z,99676.80
2018-06-02T17:30:33.938Z,99683.84
2018-06-02T17:33:01.507Z,99681.87
2018-06-02T17:35:29.058Z,99680.28
2018-06-02T17:37:56.615Z,99676.08
2018-06-02T17:40:24.193Z,99674.98
2018-06-02T17:42:51.734Z,99676.46
2018-06-02T17:45:19.278Z,99678.71
2018-06-02T17:47:46.872Z,99683.48
2018-06-02T17:50:14.420Z,99685.63
2018-06-02T17:52:41.970Z,99688.05
2018-06-02T17:55:09.554Z,99692.39
2018-06-02T17:57:37.094Z,99703.29
2018-06-02T18:00:04.671Z,99707.94
2018-06-02T18:02:32.256Z,99707.33
2018-06-02T18:04:59.816Z,99703.53
2018-06-02T18:07:27.425Z,99702.71
2018-06-02T18:09:55.012Z,99696.64
2018-06-02T18:12:22.563Z,99684.52
2018-06-02T18:14:50.129Z,99707.23
2018-06-02T18:17:17.725Z,99709.69
2018-06-02T18:19:45.276Z,99712.89
2018-06-02T18:22:12.835Z,99705.72
2018-06-02T18:24:40.422Z,99701.76
2018-06-02T18:27:07.979Z,99707.03
2018-06-02T18:29:35.531Z,99707.42
2018-06-02T18:32:03.198Z,99712.50
2018-06-02T18:34:30.751Z,99709.92
2018-06-02T18:36:58.298Z,99713.37
2018-06-02T18:39:26.085Z,99714.82
2018-06-02T18:41:54.348Z,99717.55
2018-06-02T18:44:21.938Z,99718.70
2018-06-02T18:46:49.521Z,99717.75
2018-06-02T18:49:17.096Z,99724.17
2018-06-02T18:51:44.646Z,99721.38
2018-06-02T18:54:12.232Z,99722.53
2018-06-02T18:56:39.787Z,99733.31
2018-06-02T18:59:07.339Z,99722.98
2018-06-02T19:01:34.926Z,99726.25
2018-06-02T19:04:02.482Z,99720.61
2018-06-02T19:06:30.041Z,99725.66
2018-06-02T19:08:57.624Z,99733.94
2018-06-02T19:11:25.191Z,99724.60
2018-06-02T19:13:52.734Z,99731.35
2018-06-02T19:16:20.315Z,99733.11
2018-06-02T19:18:47.870Z,99730.20
2018-06-02T19:21:15.434Z,99730.00
2018-06-02T19:23:43.011Z,99721.52
2018-06-02T19:26:10.562Z,99734.30
2018-06-02T19:28:38.112Z,99732.45
2018-06-02T19:31:05.686Z,99728.88
2018-06-02T19:33:33.231Z,99741.16
2018-06-02T19:36:00.784Z,99740.59
2018-06-02T19:38:28.367Z,99745.88
2018-06-02T19:40:55.935Z,99743.15
2018-06-02T19:43:23.488Z,99744.88
2018-06-02T19:45:51.088Z,99743.89
2018-06-02T19:48:18.648Z,99744.16
2018-06-02T19:50:46.200Z,99745.36
2018-06-02T19:53:13.788Z,99760.63
2018-06-02T19:55:41.342Z,99754.23
2018-06-02T19:58:08.895Z,99761.53
2018-06-02T20:00:36.472Z,99762.24
2018-06-02T20:03:04.019Z,99761.83
2018-06-02T20:05:31.572Z,99765.13
2018-06-02T20:08:28.677Z,99764.64
2018-06-02T20:10:57.481Z,99764.45
2018-06-02T20:13:26.311Z,99761.77
2018-06-02T20:15:55.083Z,99761.05
2018-06-02T20:18:23.814Z,99763.79
2018-06-02T20:20:52.587Z,99757.82
2018-06-02T20:23:21.412Z,99761.01
2018-06-02T20:25:50.129Z,99760.81
2018-06-02T20:28:18.853Z,99765.30
2018-06-02T20:30:47.628Z,99753.60
2018-06-02T20:33:16.331Z,99765.66
2018-06-02T20:35:45.080Z,99763.53
2018-06-02T20:38:13.838Z,99769.21
2018-06-02T20:40:42.579Z,99770.58
2018-06-02T20:43:11.318Z,99777.11
2018-06-02T20:45:40.079Z,99778.32
2018-06-02T20:48:08.880Z,99779.70
2018-06-02T20:50:37.684Z,99773.78
2018-06-02T20:53:06.503Z,99781.48
2018-06-02T20:55:35.205Z,99781.88
2018-06-02T20:58:03.956Z,99781.78
2018-06-02T21:00:32.670Z,99787.28
2018-06-02T21:03:01.453Z,99787.32
2018-06-02T21:05:30.258Z,99794.48
2018-06-02T21:07:58.986Z,99797.47
2018-06-02T21:10:27.694Z,99795.42
2018-06-02T21:12:56.456Z,99797.76
2018-06-02T21:15:25.167Z,99804.39
2018-06-02T21:17:53.981Z,99799.74
2018-06-02T21:20:22.787Z,99799.19
2018-06-02T21:22:51.519Z,99799.97
2018-06-02T21:25:20.248Z,99803.58
2018-06-02T21:27:48.999Z,99801.70
2018-06-02T21:30:17.730Z,99794.11
2018-06-02T21:32:46.442Z,99796.25
2018-06-02T21:35:15.276Z,99795.95
2018-06-02T21:37:44.061Z,99792.12
2018-06-02T21:40:12.801Z,99798.94
2018-06-02T21:42:41.557Z,99796.20
2018-06-02T21:45:10.282Z,99798.05
2018-06-02T21:47:38.978Z,99791.52
2018-06-02T21:50:07.709Z,99790.50
2018-06-02T21:52:36.439Z,99791.86
2018-06-02T21:55:05.173Z,99781.25
2018-06-02T21:57:33.922Z,99782.58
2018-06-02T22:00:02.657Z,99784.45
2018-06-02T22:02:31.386Z,99780.40
2018-06-02T22:05:00.253Z,99774.95
2018-06-02T22:07:29.114Z,99776.86
2018-06-02T22:09:57.909Z,99770.86
2018-06-02T22:12:26.938Z,99763.78
2018-06-02T22:14:55.753Z,99769.54
2018-06-02T22:17:24.632Z,99765.27
2018-06-02T22:19:53.497Z,99759.55
2018-06-02T22:22:22.302Z,99766.98
2018-06-02T22:24:51.100Z,99754.98
2018-06-02T22:27:19.960Z,99760.76
2018-06-02T22:29:48.721Z,99758.91
2018-06-02T22:32:17.523Z,99756.25
2018-06-02T22:34:46.421Z,99753.78
2018-06-02T22:37:15.285Z,99754.07
2018-06-02T22:39:44.080Z,99744.02
2018-06-02T22:42:12.806Z,99738.02
2018-06-02T22:44:41.598Z,99741.55
2018-06-02T22:47:10.458Z,99740.48
2018-06-02T22:49:39.344Z,99735.30
2018-06-02T22:52:08.325Z,99736.63
2018-06-02T22:54:37.482Z,99735.00
2018-06-02T22:57:06.448Z,99737.17
2018-06-02T22:59:35.318Z,99739.67
2018-06-02T23:02:04.030Z,99735.84
2018-06-02T23:04:32.879Z,99736.69
2018-06-02T23:07:01.664Z,99739.96
2018-06-02T23:09:30.371Z,99738.89
2018-06-02T23:11:59.160Z,99736.48
2018-06-02T23:14:27.909Z,99733.18
2018-06-02T23:16:56.626Z,99725.63
2018-06-02T23:19:25.371Z,99727.01
2018-06-02T23:21:54.110Z,99731.94
2018-06-02T23:24:22.803Z,99736.30
2018-06-02T23:26:51.538Z,99729.81
2018-06-02T23:29:21.087Z,99738.00
2018-06-02T23:31:49.791Z,99733.67
2018-06-02T23:34:18.517Z,99731.31
2018-06-02T23:36:47.213Z,99724.02
2018-06-02T23:39:15.927Z,99724.88
2018-06-02T23:41:44.674Z,99716.20
2018-06-02T23:44:13.378Z,99718.16
2018-06-02T23:46:42.110Z,99713.59
2018-06-02T23:49:11.048Z,99718.48
2018-06-02T23:51:39.814Z,99712.50
2018-06-02T23:54:08.514Z,99714.98
2018-06-02T23:56:37.258Z,99716.89
2018-06-02T23:59:05.965Z,99715.55
